sensor_id;sensor_type;location;lat;lon;timestamp;temperature;humidity
18613;DHT22;9436;52.152;21.032;2023-02-03T00:00:45;2.50;99.90
18613;DHT22;9436;52.152;21.032;2023-02-03T00:03:12;2.40;99.90
18613;DHT22;9436;52.152;21.032;2023-02-03T00:05:39;2.50;99.90
18613;DHT22;9436;52.152;21.032;2023-02-03T00:08:09;2.40;99.90
18613;DHT22;9436;52.152;21.032;2023-02-03T00:10:38;2.40;99.90
18613;DHT22;9436;52.152;21.032;2023-02-03T00:13:06;2.30;99.90
18613;DHT22;9436;52.152;21.032;2023-02-03T00:15:34;2.40;99.90
18613;DHT22;9436;52.152;21.032;2023-02-03T00:18:01;2.30;99.90
18613;DHT22;9436;52.152;21.032;2023-02-03T00:20:28;2.20;99.90
18613;DHT22;9436;52.152;21.032;2023-02-03T00:23:02;2.30;99.90
18613;DHT22;9436;52.152;21.032;2023-02-03T00:25:31;2.40;99.90
18613;DHT22;9436;52.152;21.032;2023-02-03T00:27:58;2.30;99.90
18613;DHT22;9436;52.152;21.032;2023-02-03T00:30:26;2.30;99.90
18613;DHT22;9436;52.152;21.032;2023-02-03T00:32:53;2.30;99.90
18613;DHT22;9436;52.152;21.032;2023-02-03T00:35:20;2.20;99.90
18613;DHT22;9436;52.152;21.032;2023-02-03T00:37:50;2.30;99.90
18613;DHT22;9436;52.152;21.032;2023-02-03T00:40:18;2.30;99.90
18613;DHT22;9436;52.152;21.032;2023-02-03T00:42:47;2.30;99.90
18613;DHT22;9436;52.152;21.032;2023-02-03T00:45:15;2.30;99.90
18613;DHT22;9436;52.152;21.032;2023-02-03T00:47:42;2.20;99.90
18613;DHT22;9436;52.152;21.032;2023-02-03T00:50:10;2.20;99.90
18613;DHT22;9436;52.152;21.032;2023-02-03T00:52:37;2.10;99.90
18613;DHT22;9436;52.152;21.032;2023-02-03T00:55:05;2.00;99.90
18613;DHT22;9436;52.152;21.032;2023-02-03T00:57:32;2.10;99.90
18613;DHT22;9436;52.152;21.032;2023-02-03T01:00:01;2.00;99.90
18613;DHT22;9436;52.152;21.032;2023-02-03T01:02:28;2.00;99.90
18613;DHT22;9436;52.152;21.032;2023-02-03T01:04:55;2.00;99.90
18613;DHT22;9436;52.152;21.032;2023-02-03T01:07:22;2.00;99.90
18613;DHT22;9436;52.152;21.032;2023-02-03T01:09:49;2.00;99.90
18613;DHT22;9436;52.152;21.032;2023-02-03T01:12:16;2.00;99.90
18613;DHT22;9436;52.152;21.032;2023-02-03T01:14:43;2.00;99.90
18613;DHT22;9436;52.152;21.032;2023-02-03T01:17:12;2.00;99.90
18613;DHT22;9436;52.152;21.032;2023-02-03T01:19:39;2.10;99.90
18613;DHT22;9436;52.152;21.032;2023-02-03T01:22:06;2.10;99.90
18613;DHT22;9436;52.152;21.032;2023-02-03T01:24:33;2.00;99.90
18613;DHT22;9436;52.152;21.032;2023-02-03T01:27:00;2.10;99.90
18613;DHT22;9436;52.152;21.032;2023-02-03T01:29:27;1.90;99.90
18613;DHT22;9436;52.152;21.032;2023-02-03T01:31:54;2.00;99.90
18613;DHT22;9436;52.152;21.032;2023-02-03T01:34:23;2.00;99.90
18613;DHT22;9436;52.152;21.032;2023-02-03T01:36:50;2.10;99.90
18613;DHT22;9436;52.152;21.032;2023-02-03T01:39:17;2.10;99.90
18613;DHT22;9436;52.152;21.032;2023-02-03T01:41:44;2.30;99.90
18613;DHT22;9436;52.152;21.032;2023-02-03T01:47:28;2.20;99.90
18613;DHT22;9436;52.152;21.032;2023-02-03T01:50:06;2.20;99.90
18613;DHT22;9436;52.152;21.032;2023-02-03T01:52:35;2.10;99.90
18613;DHT22;9436;52.152;21.032;2023-02-03T01:55:05;2.20;99.90
18613;DHT22;9436;52.152;21.032;2023-02-03T01:57:37;2.10;99.90
18613;DHT22;9436;52.152;21.032;2023-02-03T02:00:06;2.10;99.90
18613;DHT22;9436;52.152;21.032;2023-02-03T02:02:34;2.10;99.90
18613;DHT22;9436;52.152;21.032;2023-02-03T02:05:06;2.00;99.90
18613;DHT22;9436;52.152;21.032;2023-02-03T02:07:35;1.90;99.90
18613;DHT22;9436;52.152;21.032;2023-02-03T02:10:04;1.90;99.90
18613;DHT22;9436;52.152;21.032;2023-02-03T02:12:31;1.90;99.90
18613;DHT22;9436;52.152;21.032;2023-02-03T02:14:59;2.00;99.90
18613;DHT22;9436;52.152;21.032;2023-02-03T02:17:48;1.80;99.90
18613;DHT22;9436;52.152;21.032;2023-02-03T02:20:31;1.70;99.90
18613;DHT22;9436;52.152;21.032;2023-02-03T02:23:35;1.60;99.90
18613;DHT22;9436;52.152;21.032;2023-02-03T02:26:33;1.50;99.90
18613;DHT22;9436;52.152;21.032;2023-02-03T02:29:26;1.40;99.90
18613;DHT22;9436;52.152;21.032;2023-02-03T02:32:05;1.40;99.90
18613;DHT22;9436;52.152;21.032;2023-02-03T02:34:44;1.40;99.90
18613;DHT22;9436;52.152;21.032;2023-02-03T02:37:18;1.40;99.90
18613;DHT22;9436;52.152;21.032;2023-02-03T02:39:55;1.40;99.90
18613;DHT22;9436;52.152;21.032;2023-02-03T02:42:29;1.40;99.90
18613;DHT22;9436;52.152;21.032;2023-02-03T02:45:04;1.50;99.90
18613;DHT22;9436;52.152;21.032;2023-02-03T02:47:34;1.50;99.90
18613;DHT22;9436;52.152;21.032;2023-02-03T02:50:05;1.70;99.90
18613;DHT22;9436;52.152;21.032;2023-02-03T02:52:37;1.70;99.90
18613;DHT22;9436;52.152;21.032;2023-02-03T02:55:09;1.70;99.90
18613;DHT22;9436;52.152;21.032;2023-02-03T02:57:38;1.80;99.90
18613;DHT22;9436;52.152;21.032;2023-02-03T03:00:07;1.90;99.90
18613;DHT22;9436;52.152;21.032;2023-02-03T03:02:36;1.70;99.90
18613;DHT22;9436;52.152;21.032;2023-02-03T03:05:04;1.80;99.90
18613;DHT22;9436;52.152;21.032;2023-02-03T03:07:35;1.90;99.90
18613;DHT22;9436;52.152;21.032;2023-02-03T03:10:08;1.80;99.90
18613;DHT22;9436;52.152;21.032;2023-02-03T03:12:39;1.80;99.90
18613;DHT22;9436;52.152;21.032;2023-02-03T03:15:11;1.80;99.90
18613;DHT22;9436;52.152;21.032;2023-02-03T03:17:44;1.80;99.90
18613;DHT22;9436;52.152;21.032;2023-02-03T03:20:16;1.80;99.90
18613;DHT22;9436;52.152;21.032;2023-02-03T03:22:51;1.80;99.90
18613;DHT22;9436;52.152;21.032;2023-02-03T03:25:23;1.90;99.90
18613;DHT22;9436;52.152;21.032;2023-02-03T03:27:54;1.90;99.90
18613;DHT22;9436;52.152;21.032;2023-02-03T03:30:27;1.80;99.90
18613;DHT22;9436;52.152;21.032;2023-02-03T03:32:57;1.80;99.90
18613;DHT22;9436;52.152;21.032;2023-02-03T03:35:31;1.80;99.90
18613;DHT22;9436;52.152;21.032;2023-02-03T03:38:04;1.80;99.90
18613;DHT22;9436;52.152;21.032;2023-02-03T03:40:36;1.80;99.90
18613;DHT22;9436;52.152;21.032;2023-02-03T03:43:09;1.80;99.90
18613;DHT22;9436;52.152;21.032;2023-02-03T03:45:41;1.80;99.90
18613;DHT22;9436;52.152;21.032;2023-02-03T03:48:15;1.80;99.90
18613;DHT22;9436;52.152;21.032;2023-02-03T03:50:46;1.70;99.90
18613;DHT22;9436;52.152;21.032;2023-02-03T03:53:16;1.70;99.90
18613;DHT22;9436;52.152;21.032;2023-02-03T03:55:48;1.70;99.90
18613;DHT22;9436;52.152;21.032;2023-02-03T03:58:19;1.60;99.90
18613;DHT22;9436;52.152;21.032;2023-02-03T04:00:48;1.60;99.90
18613;DHT22;9436;52.152;21.032;2023-02-03T04:03:20;1.60;99.90
18613;DHT22;9436;52.152;21.032;2023-02-03T04:05:49;1.70;99.90
18613;DHT22;9436;52.152;21.032;2023-02-03T04:08:16;1.70;99.90
18613;DHT22;9436;52.152;21.032;2023-02-03T04:10:43;1.70;99.90
18613;DHT22;9436;52.152;21.032;2023-02-03T04:13:11;1.60;99.90
18613;DHT22;9436;52.152;21.032;2023-02-03T04:15:40;1.50;99.90
18613;DHT22;9436;52.152;21.032;2023-02-03T04:18:08;1.50;99.90
18613;DHT22;9436;52.152;21.032;2023-02-03T04:20:37;1.60;99.90
18613;DHT22;9436;52.152;21.032;2023-02-03T04:23:05;1.60;99.90
18613;DHT22;9436;52.152;21.032;2023-02-03T04:25:32;1.50;99.90
18613;DHT22;9436;52.152;21.032;2023-02-03T04:27:59;1.50;99.90
18613;DHT22;9436;52.152;21.032;2023-02-03T04:30:26;1.40;99.90
18613;DHT22;9436;52.152;21.032;2023-02-03T04:32:53;1.40;99.90
18613;DHT22;9436;52.152;21.032;2023-02-03T04:35:21;1.40;99.90
18613;DHT22;9436;52.152;21.032;2023-02-03T04:37:49;1.40;99.90
18613;DHT22;9436;52.152;21.032;2023-02-03T04:40:17;1.40;99.90
18613;DHT22;9436;52.152;21.032;2023-02-03T04:42:44;1.30;99.90
18613;DHT22;9436;52.152;21.032;2023-02-03T04:45:11;1.30;99.90
18613;DHT22;9436;52.152;21.032;2023-02-03T04:47:38;1.40;99.90
18613;DHT22;9436;52.152;21.032;2023-02-03T04:50:06;1.40;99.90
18613;DHT22;9436;52.152;21.032;2023-02-03T04:52:33;1.40;99.90
18613;DHT22;9436;52.152;21.032;2023-02-03T04:55:02;1.40;99.90
18613;DHT22;9436;52.152;21.032;2023-02-03T04:57:29;1.30;99.90
18613;DHT22;9436;52.152;21.032;2023-02-03T04:59:56;1.30;99.90
18613;DHT22;9436;52.152;21.032;2023-02-03T05:02:23;1.30;99.90
18613;DHT22;9436;52.152;21.032;2023-02-03T05:04:50;1.20;99.90
18613;DHT22;9436;52.152;21.032;2023-02-03T05:07:18;1.20;99.90
18613;DHT22;9436;52.152;21.032;2023-02-03T05:09:45;1.10;99.90
18613;DHT22;9436;52.152;21.032;2023-02-03T05:12:13;1.20;99.90
18613;DHT22;9436;52.152;21.032;2023-02-03T05:14:40;1.20;99.90
18613;DHT22;9436;52.152;21.032;2023-02-03T05:17:07;1.30;99.90
18613;DHT22;9436;52.152;21.032;2023-02-03T05:19:34;1.30;99.90
18613;DHT22;9436;52.152;21.032;2023-02-03T05:22:01;1.30;99.90
18613;DHT22;9436;52.152;21.032;2023-02-03T05:24:29;1.40;99.90
18613;DHT22;9436;52.152;21.032;2023-02-03T05:26:56;1.40;99.90
18613;DHT22;9436;52.152;21.032;2023-02-03T05:29:24;1.50;99.90
18613;DHT22;9436;52.152;21.032;2023-02-03T05:31:51;1.60;99.90
18613;DHT22;9436;52.152;21.032;2023-02-03T05:34:18;1.40;99.90
18613;DHT22;9436;52.152;21.032;2023-02-03T05:36:45;1.50;99.90
18613;DHT22;9436;52.152;21.032;2023-02-03T05:39:12;1.50;99.90
18613;DHT22;9436;52.152;21.032;2023-02-03T05:41:39;1.40;99.90
18613;DHT22;9436;52.152;21.032;2023-02-03T05:44:17;1.40;99.90
18613;DHT22;9436;52.152;21.032;2023-02-03T05:46:46;1.30;99.90
18613;DHT22;9436;52.152;21.032;2023-02-03T05:49:13;1.20;99.90
18613;DHT22;9436;52.152;21.032;2023-02-03T05:51:40;1.20;99.90
18613;DHT22;9436;52.152;21.032;2023-02-03T05:54:08;1.10;99.90
18613;DHT22;9436;52.152;21.032;2023-02-03T05:56:35;1.30;99.90
18613;DHT22;9436;52.152;21.032;2023-02-03T05:59:02;1.30;99.90
18613;DHT22;9436;52.152;21.032;2023-02-03T06:01:30;1.30;99.90
18613;DHT22;9436;52.152;21.032;2023-02-03T06:03:59;1.40;99.90
18613;DHT22;9436;52.152;21.032;2023-02-03T06:06:26;1.40;99.90
18613;DHT22;9436;52.152;21.032;2023-02-03T06:08:58;1.40;99.90
18613;DHT22;9436;52.152;21.032;2023-02-03T06:11:25;1.30;99.90
18613;DHT22;9436;52.152;21.032;2023-02-03T06:13:53;1.30;99.90
18613;DHT22;9436;52.152;21.032;2023-02-03T06:16:21;1.20;99.90
18613;DHT22;9436;52.152;21.032;2023-02-03T06:18:49;1.30;99.90
18613;DHT22;9436;52.152;21.032;2023-02-03T06:21:18;1.40;99.90
18613;DHT22;9436;52.152;21.032;2023-02-03T06:23:45;1.30;99.90
18613;DHT22;9436;52.152;21.032;2023-02-03T06:26:13;1.30;99.90
18613;DHT22;9436;52.152;21.032;2023-02-03T06:28:40;1.50;99.90
18613;DHT22;9436;52.152;21.032;2023-02-03T06:31:07;1.70;99.90
18613;DHT22;9436;52.152;21.032;2023-02-03T06:33:35;1.90;99.90
18613;DHT22;9436;52.152;21.032;2023-02-03T06:36:02;1.90;99.90
18613;DHT22;9436;52.152;21.032;2023-02-03T06:38:30;2.00;99.90
18613;DHT22;9436;52.152;21.032;2023-02-03T06:40:57;2.20;99.90
18613;DHT22;9436;52.152;21.032;2023-02-03T06:43:25;2.10;99.90
18613;DHT22;9436;52.152;21.032;2023-02-03T06:45:52;2.00;99.90
18613;DHT22;9436;52.152;21.032;2023-02-03T06:48:19;1.90;99.90
18613;DHT22;9436;52.152;21.032;2023-02-03T06:50:46;1.90;99.90
18613;DHT22;9436;52.152;21.032;2023-02-03T06:53:13;2.10;99.90
18613;DHT22;9436;52.152;21.032;2023-02-03T06:55:41;2.40;99.90
18613;DHT22;9436;52.152;21.032;2023-02-03T06:58:08;3.00;99.90
18613;DHT22;9436;52.152;21.032;2023-02-03T07:00:35;3.30;99.90
18613;DHT22;9436;52.152;21.032;2023-02-03T07:03:03;3.50;99.90
18613;DHT22;9436;52.152;21.032;2023-02-03T07:05:30;3.50;99.90
18613;DHT22;9436;52.152;21.032;2023-02-03T07:07:57;3.60;99.90
18613;DHT22;9436;52.152;21.032;2023-02-03T07:10:24;3.60;99.90
18613;DHT22;9436;52.152;21.032;2023-02-03T07:12:53;3.60;99.90
18613;DHT22;9436;52.152;21.032;2023-02-03T07:15:20;3.40;99.90
18613;DHT22;9436;52.152;21.032;2023-02-03T07:17:47;3.30;99.90
18613;DHT22;9436;52.152;21.032;2023-02-03T07:20:20;3.10;99.90
18613;DHT22;9436;52.152;21.032;2023-02-03T07:22:51;3.10;99.90
18613;DHT22;9436;52.152;21.032;2023-02-03T07:25:18;3.10;99.90
18613;DHT22;9436;52.152;21.032;2023-02-03T07:27:45;3.20;99.90
18613;DHT22;9436;52.152;21.032;2023-02-03T07:30:14;3.10;99.90
18613;DHT22;9436;52.152;21.032;2023-02-03T07:32:46;3.20;99.90
18613;DHT22;9436;52.152;21.032;2023-02-03T07:35:13;3.30;99.90
18613;DHT22;9436;52.152;21.032;2023-02-03T07:37:40;3.60;99.90
18613;DHT22;9436;52.152;21.032;2023-02-03T07:40:08;3.80;99.90
18613;DHT22;9436;52.152;21.032;2023-02-03T07:42:39;3.70;99.90
18613;DHT22;9436;52.152;21.032;2023-02-03T07:45:08;4.40;99.90
18613;DHT22;9436;52.152;21.032;2023-02-03T07:47:36;4.10;99.90
18613;DHT22;9436;52.152;21.032;2023-02-03T07:50:04;4.10;99.90
18613;DHT22;9436;52.152;21.032;2023-02-03T07:52:31;3.80;99.90
18613;DHT22;9436;52.152;21.032;2023-02-03T07:54:58;3.50;99.90
18613;DHT22;9436;52.152;21.032;2023-02-03T07:57:25;3.50;99.90
18613;DHT22;9436;52.152;21.032;2023-02-03T07:59:52;3.60;99.90
18613;DHT22;9436;52.152;21.032;2023-02-03T08:02:20;3.50;99.90
18613;DHT22;9436;52.152;21.032;2023-02-03T08:04:48;3.40;99.90
18613;DHT22;9436;52.152;21.032;2023-02-03T08:07:15;3.30;99.90
18613;DHT22;9436;52.152;21.032;2023-02-03T08:09:42;3.10;99.90
18613;DHT22;9436;52.152;21.032;2023-02-03T08:12:09;3.10;99.90
18613;DHT22;9436;52.152;21.032;2023-02-03T08:14:36;3.00;99.90
18613;DHT22;9436;52.152;21.032;2023-02-03T08:17:03;3.10;99.90
18613;DHT22;9436;52.152;21.032;2023-02-03T08:19:30;3.10;99.90
18613;DHT22;9436;52.152;21.032;2023-02-03T08:21:59;3.10;99.90
18613;DHT22;9436;52.152;21.032;2023-02-03T08:24:26;3.10;99.90
18613;DHT22;9436;52.152;21.032;2023-02-03T08:26:53;3.10;99.90
18613;DHT22;9436;52.152;21.032;2023-02-03T08:29:20;3.00;99.90
18613;DHT22;9436;52.152;21.032;2023-02-03T08:31:47;2.80;99.90
18613;DHT22;9436;52.152;21.032;2023-02-03T08:34:14;3.60;99.90
18613;DHT22;9436;52.152;21.032;2023-02-03T08:36:41;4.70;99.90
18613;DHT22;9436;52.152;21.032;2023-02-03T08:39:10;4.50;99.90
18613;DHT22;9436;52.152;21.032;2023-02-03T08:41:38;4.30;99.90
18613;DHT22;9436;52.152;21.032;2023-02-03T08:44:05;4.10;99.90
18613;DHT22;9436;52.152;21.032;2023-02-03T08:46:32;3.80;99.90
18613;DHT22;9436;52.152;21.032;2023-02-03T08:49:00;3.80;99.90
18613;DHT22;9436;52.152;21.032;2023-02-03T08:51:28;3.50;99.90
18613;DHT22;9436;52.152;21.032;2023-02-03T08:53:55;4.00;99.90
18613;DHT22;9436;52.152;21.032;2023-02-03T08:56:23;3.90;99.90
18613;DHT22;9436;52.152;21.032;2023-02-03T08:58:52;3.70;99.90
18613;DHT22;9436;52.152;21.032;2023-02-03T09:01:20;3.70;99.90
18613;DHT22;9436;52.152;21.032;2023-02-03T09:03:47;3.70;99.90
18613;DHT22;9436;52.152;21.032;2023-02-03T09:06:14;3.80;99.90
18613;DHT22;9436;52.152;21.032;2023-02-03T09:08:41;3.80;99.90
18613;DHT22;9436;52.152;21.032;2023-02-03T09:11:09;3.70;99.90
18613;DHT22;9436;52.152;21.032;2023-02-03T09:13:38;3.80;99.90
18613;DHT22;9436;52.152;21.032;2023-02-03T09:16:06;3.80;99.90
18613;DHT22;9436;52.152;21.032;2023-02-03T09:18:33;3.90;99.90
18613;DHT22;9436;52.152;21.032;2023-02-03T09:21:00;3.90;99.90
18613;DHT22;9436;52.152;21.032;2023-02-03T09:23:28;4.00;99.90
18613;DHT22;9436;52.152;21.032;2023-02-03T09:25:55;4.00;99.90
18613;DHT22;9436;52.152;21.032;2023-02-03T09:28:22;4.00;99.90
18613;DHT22;9436;52.152;21.032;2023-02-03T09:30:50;5.00;99.90
18613;DHT22;9436;52.152;21.032;2023-02-03T09:33:17;5.50;99.90
18613;DHT22;9436;52.152;21.032;2023-02-03T09:35:51;5.50;99.90
18613;DHT22;9436;52.152;21.032;2023-02-03T09:38:18;5.30;99.90
18613;DHT22;9436;52.152;21.032;2023-02-03T09:40:48;4.90;99.90
18613;DHT22;9436;52.152;21.032;2023-02-03T09:43:28;4.80;99.90
18613;DHT22;9436;52.152;21.032;2023-02-03T09:46:02;4.50;99.90
18613;DHT22;9436;52.152;21.032;2023-02-03T09:48:35;4.30;99.90
18613;DHT22;9436;52.152;21.032;2023-02-03T09:51:03;4.20;99.90
18613;DHT22;9436;52.152;21.032;2023-02-03T09:53:36;4.30;99.90
18613;DHT22;9436;52.152;21.032;2023-02-03T09:56:19;4.40;99.90
18613;DHT22;9436;52.152;21.032;2023-02-03T09:58:48;4.20;99.90
18613;DHT22;9436;52.152;21.032;2023-02-03T10:01:17;4.20;99.90
18613;DHT22;9436;52.152;21.032;2023-02-03T10:03:51;4.10;99.90
18613;DHT22;9436;52.152;21.032;2023-02-03T10:06:27;4.10;99.90
18613;DHT22;9436;52.152;21.032;2023-02-03T10:09:04;4.20;99.90
18613;DHT22;9436;52.152;21.032;2023-02-03T10:14:44;4.10;99.90
18613;DHT22;9436;52.152;21.032;2023-02-03T10:17:24;4.20;99.90
18613;DHT22;9436;52.152;21.032;2023-02-03T10:19:59;4.20;99.90
18613;DHT22;9436;52.152;21.032;2023-02-03T10:22:29;4.30;99.90
18613;DHT22;9436;52.152;21.032;2023-02-03T10:25:00;4.20;99.90
18613;DHT22;9436;52.152;21.032;2023-02-03T10:27:29;4.40;99.90
18613;DHT22;9436;52.152;21.032;2023-02-03T10:30:01;4.60;99.90
18613;DHT22;9436;52.152;21.032;2023-02-03T10:32:32;4.60;99.90
18613;DHT22;9436;52.152;21.032;2023-02-03T10:35:00;4.50;99.90
18613;DHT22;9436;52.152;21.032;2023-02-03T10:37:30;4.50;99.90
18613;DHT22;9436;52.152;21.032;2023-02-03T10:40:00;4.60;99.90
18613;DHT22;9436;52.152;21.032;2023-02-03T10:42:29;4.60;99.90
18613;DHT22;9436;52.152;21.032;2023-02-03T10:45:19;4.70;99.90
18613;DHT22;9436;52.152;21.032;2023-02-03T10:47:50;4.70;99.90
18613;DHT22;9436;52.152;21.032;2023-02-03T10:50:20;4.60;99.90
18613;DHT22;9436;52.152;21.032;2023-02-03T10:52:48;4.60;99.90
18613;DHT22;9436;52.152;21.032;2023-02-03T10:55:30;4.50;99.90
18613;DHT22;9436;52.152;21.032;2023-02-03T10:57:57;4.50;99.90
18613;DHT22;9436;52.152;21.032;2023-02-03T11:00:33;4.40;99.90
18613;DHT22;9436;52.152;21.032;2023-02-03T11:03:06;4.50;99.90
18613;DHT22;9436;52.152;21.032;2023-02-03T11:05:34;4.60;99.90
18613;DHT22;9436;52.152;21.032;2023-02-03T11:08:02;4.70;99.90
18613;DHT22;9436;52.152;21.032;2023-02-03T11:10:34;4.70;99.90
18613;DHT22;9436;52.152;21.032;2023-02-03T11:13:15;4.80;99.90
18613;DHT22;9436;52.152;21.032;2023-02-03T11:15:53;5.00;99.90
18613;DHT22;9436;52.152;21.032;2023-02-03T11:21:29;5.10;99.90
18613;DHT22;9436;52.152;21.032;2023-02-03T11:24:03;5.20;99.90
18613;DHT22;9436;52.152;21.032;2023-02-03T11:26:36;5.00;99.90
18613;DHT22;9436;52.152;21.032;2023-02-03T11:29:12;4.70;99.90
18613;DHT22;9436;52.152;21.032;2023-02-03T11:31:46;4.80;99.90
18613;DHT22;9436;52.152;21.032;2023-02-03T11:34:17;4.50;99.90
18613;DHT22;9436;52.152;21.032;2023-02-03T11:36:45;4.50;99.90
18613;DHT22;9436;52.152;21.032;2023-02-03T11:39:33;4.50;99.90
18613;DHT22;9436;52.152;21.032;2023-02-03T11:42:00;4.70;99.90
18613;DHT22;9436;52.152;21.032;2023-02-03T11:44:29;4.50;99.90
18613;DHT22;9436;52.152;21.032;2023-02-03T11:47:00;4.50;99.90
18613;DHT22;9436;52.152;21.032;2023-02-03T11:52:49;4.40;99.90
18613;DHT22;9436;52.152;21.032;2023-02-03T11:55:29;4.50;99.90
18613;DHT22;9436;52.152;21.032;2023-02-03T11:58:19;4.50;99.90
18613;DHT22;9436;52.152;21.032;2023-02-03T12:00:56;4.50;99.90
18613;DHT22;9436;52.152;21.032;2023-02-03T12:03:39;4.50;99.90
18613;DHT22;9436;52.152;21.032;2023-02-03T12:09:19;4.50;99.90
18613;DHT22;9436;52.152;21.032;2023-02-03T12:12:06;4.50;99.90
18613;DHT22;9436;52.152;21.032;2023-02-03T12:14:48;4.30;99.90
18613;DHT22;9436;52.152;21.032;2023-02-03T12:17:41;4.20;99.90
18613;DHT22;9436;52.152;21.032;2023-02-03T12:20:24;4.10;99.90
18613;DHT22;9436;52.152;21.032;2023-02-03T12:22:58;4.20;99.90
18613;DHT22;9436;52.152;21.032;2023-02-03T12:25:36;4.20;99.90
18613;DHT22;9436;52.152;21.032;2023-02-03T12:28:20;4.40;99.90
18613;DHT22;9436;52.152;21.032;2023-02-03T12:30:50;4.50;99.90
18613;DHT22;9436;52.152;21.032;2023-02-03T12:33:21;4.30;99.90
18613;DHT22;9436;52.152;21.032;2023-02-03T12:35:51;4.50;99.90
18613;DHT22;9436;52.152;21.032;2023-02-03T12:38:28;4.50;99.90
18613;DHT22;9436;52.152;21.032;2023-02-03T12:40:59;4.60;99.90
18613;DHT22;9436;52.152;21.032;2023-02-03T12:43:33;4.50;99.90
18613;DHT22;9436;52.152;21.032;2023-02-03T12:46:06;4.40;99.90
18613;DHT22;9436;52.152;21.032;2023-02-03T12:48:43;4.40;99.90
18613;DHT22;9436;52.152;21.032;2023-02-03T12:51:14;4.40;99.90
18613;DHT22;9436;52.152;21.032;2023-02-03T12:53:47;4.30;99.90
18613;DHT22;9436;52.152;21.032;2023-02-03T12:56:21;4.30;99.90
18613;DHT22;9436;52.152;21.032;2023-02-03T12:58:54;4.20;99.90
18613;DHT22;9436;52.152;21.032;2023-02-03T13:01:25;4.10;99.90
18613;DHT22;9436;52.152;21.032;2023-02-03T13:04:00;4.20;99.90
18613;DHT22;9436;52.152;21.032;2023-02-03T13:06:32;4.50;99.90
18613;DHT22;9436;52.152;21.032;2023-02-03T13:09:07;4.50;99.90
18613;DHT22;9436;52.152;21.032;2023-02-03T13:11:46;4.40;99.90
18613;DHT22;9436;52.152;21.032;2023-02-03T13:14:19;4.50;99.90
18613;DHT22;9436;52.152;21.032;2023-02-03T13:16:59;4.40;99.90
18613;DHT22;9436;52.152;21.032;2023-02-03T13:19:36;4.40;99.90
18613;DHT22;9436;52.152;21.032;2023-02-03T13:22:10;4.30;99.90
18613;DHT22;9436;52.152;21.032;2023-02-03T13:24:38;4.30;99.90
18613;DHT22;9436;52.152;21.032;2023-02-03T13:30:17;3.80;99.90
18613;DHT22;9436;52.152;21.032;2023-02-03T13:33:09;3.50;99.90
18613;DHT22;9436;52.152;21.032;2023-02-03T13:35:54;3.50;99.90
18613;DHT22;9436;52.152;21.032;2023-02-03T13:38:48;3.50;99.90
18613;DHT22;9436;52.152;21.032;2023-02-03T13:41:21;3.40;99.90
18613;DHT22;9436;52.152;21.032;2023-02-03T13:43:53;3.20;99.90
18613;DHT22;9436;52.152;21.032;2023-02-03T13:46:27;3.20;99.90
18613;DHT22;9436;52.152;21.032;2023-02-03T13:48:57;3.20;99.90
18613;DHT22;9436;52.152;21.032;2023-02-03T13:51:28;3.20;99.90
18613;DHT22;9436;52.152;21.032;2023-02-03T13:54:01;3.40;99.90
18613;DHT22;9436;52.152;21.032;2023-02-03T13:56:30;3.50;99.90
18613;DHT22;9436;52.152;21.032;2023-02-03T13:59:00;3.30;99.90
18613;DHT22;9436;52.152;21.032;2023-02-03T14:01:32;3.20;99.90
18613;DHT22;9436;52.152;21.032;2023-02-03T14:04:05;3.20;99.90
18613;DHT22;9436;52.152;21.032;2023-02-03T14:06:58;3.00;99.90
18613;DHT22;9436;52.152;21.032;2023-02-03T14:09:44;2.90;99.90
18613;DHT22;9436;52.152;21.032;2023-02-03T14:12:31;3.00;99.90
18613;DHT22;9436;52.152;21.032;2023-02-03T14:15:01;2.90;99.90
18613;DHT22;9436;52.152;21.032;2023-02-03T14:21:09;2.80;99.90
18613;DHT22;9436;52.152;21.032;2023-02-03T14:23:55;2.90;99.90
18613;DHT22;9436;52.152;21.032;2023-02-03T14:26:30;2.70;99.90
18613;DHT22;9436;52.152;21.032;2023-02-03T14:28:58;2.70;99.90
18613;DHT22;9436;52.152;21.032;2023-02-03T14:31:26;2.70;99.90
18613;DHT22;9436;52.152;21.032;2023-02-03T14:34:12;2.90;99.90
18613;DHT22;9436;52.152;21.032;2023-02-03T14:36:43;3.00;99.90
18613;DHT22;9436;52.152;21.032;2023-02-03T14:42:34;3.10;99.90
18613;DHT22;9436;52.152;21.032;2023-02-03T14:45:13;3.50;99.90
18613;DHT22;9436;52.152;21.032;2023-02-03T14:47:53;3.30;99.90
18613;DHT22;9436;52.152;21.032;2023-02-03T14:50:33;3.30;99.90
18613;DHT22;9436;52.152;21.032;2023-02-03T14:53:18;3.50;99.90
18613;DHT22;9436;52.152;21.032;2023-02-03T14:55:55;3.10;99.90
18613;DHT22;9436;52.152;21.032;2023-02-03T14:58:41;3.10;99.90
18613;DHT22;9436;52.152;21.032;2023-02-03T15:01:23;3.30;99.90
18613;DHT22;9436;52.152;21.032;2023-02-03T15:04:23;3.20;99.90
18613;DHT22;9436;52.152;21.032;2023-02-03T15:06:52;3.00;99.90
18613;DHT22;9436;52.152;21.032;2023-02-03T15:09:31;3.10;99.90
18613;DHT22;9436;52.152;21.032;2023-02-03T15:12:00;3.10;99.90
18613;DHT22;9436;52.152;21.032;2023-02-03T15:14:29;3.00;99.90
18613;DHT22;9436;52.152;21.032;2023-02-03T15:16:59;3.00;99.90
18613;DHT22;9436;52.152;21.032;2023-02-03T15:19:30;2.90;99.90
18613;DHT22;9436;52.152;21.032;2023-02-03T15:21:59;2.80;99.90
18613;DHT22;9436;52.152;21.032;2023-02-03T15:24:34;3.10;99.90
18613;DHT22;9436;52.152;21.032;2023-02-03T15:27:01;2.90;99.90
18613;DHT22;9436;52.152;21.032;2023-02-03T15:29:30;2.90;99.90
18613;DHT22;9436;52.152;21.032;2023-02-03T15:32:05;2.80;99.90
18613;DHT22;9436;52.152;21.032;2023-02-03T15:34:38;3.10;99.90
18613;DHT22;9436;52.152;21.032;2023-02-03T15:37:13;3.10;99.90
18613;DHT22;9436;52.152;21.032;2023-02-03T15:39:47;3.10;99.90
18613;DHT22;9436;52.152;21.032;2023-02-03T15:42:21;2.90;99.90
18613;DHT22;9436;52.152;21.032;2023-02-03T15:44:55;2.70;99.90
18613;DHT22;9436;52.152;21.032;2023-02-03T15:47:31;2.80;99.90
18613;DHT22;9436;52.152;21.032;2023-02-03T15:50:05;2.70;99.90
18613;DHT22;9436;52.152;21.032;2023-02-03T15:52:38;2.60;99.90
18613;DHT22;9436;52.152;21.032;2023-02-03T15:55:14;2.40;99.90
18613;DHT22;9436;52.152;21.032;2023-02-03T15:57:44;2.40;99.90
18613;DHT22;9436;52.152;21.032;2023-02-03T16:00:29;2.30;99.90
18613;DHT22;9436;52.152;21.032;2023-02-03T16:02:58;2.40;99.90
18613;DHT22;9436;52.152;21.032;2023-02-03T16:05:28;2.30;99.90
18613;DHT22;9436;52.152;21.032;2023-02-03T16:10:39;1.80;99.90
18613;DHT22;9436;52.152;21.032;2023-02-03T16:13:19;1.60;99.90
18613;DHT22;9436;52.152;21.032;2023-02-03T16:16:02;1.90;99.90
18613;DHT22;9436;52.152;21.032;2023-02-03T16:18:33;1.90;99.90
18613;DHT22;9436;52.152;21.032;2023-02-03T16:21:01;1.60;99.90
18613;DHT22;9436;52.152;21.032;2023-02-03T16:23:30;1.60;99.90
18613;DHT22;9436;52.152;21.032;2023-02-03T16:26:06;1.50;99.90
18613;DHT22;9436;52.152;21.032;2023-02-03T16:28:37;1.50;99.90
18613;DHT22;9436;52.152;21.032;2023-02-03T16:31:22;1.50;99.90
18613;DHT22;9436;52.152;21.032;2023-02-03T16:34:13;1.40;99.90
18613;DHT22;9436;52.152;21.032;2023-02-03T16:36:57;1.50;99.90
18613;DHT22;9436;52.152;21.032;2023-02-03T16:39:43;1.60;99.90